Time;durP1;ratioP1;P1;durP2;ratioP2;P2;SDS_P1;SDS_P2;PMS_P1;PMS_P2;Temp;Humidity;BMP_temperature;BMP_pressure;BME280_temperature;BME280_humidity;BME280_pressure;Samples;Min_cycle;Max_cycle;Signal;HPM_P1;HPM_P2
2023/10/01 00:00:42;;;;;;;7.50;3.57;;;;;;;21.92;37.70;99076.78;5016112;28;20229;-87
2023/10/01 00:03:08;;;;;;;9.30;4.33;;;;;;;21.91;37.55;99071.56;5034213;28;20162;-87
2023/10/01 00:05:39;;;;;;;14.83;4.23;;;;;;;21.88;37.33;99064.72;5033943;28;20197;-86
2023/10/01 00:08:13;;;;;;;7.90;3.73;;;;;;;21.70;38.11;99069.19;5034161;28;20171;-87
2023/10/01 00:10:41;;;;;;;7.30;3.47;;;;;;;21.70;38.18;99068.34;5016480;28;20275;-87
2023/10/01 00:13:07;;;;;;;11.30;3.73;;;;;;;21.56;38.30;99063.56;5033708;28;20174;-87
2023/10/01 00:15:37;;;;;;;9.90;3.53;;;;;;;21.47;38.80;99059.09;5033500;28;20186;-89
2023/10/01 00:18:05;;;;;;;11.63;4.17;;;;;;;21.42;38.72;99060.41;5017074;28;20206;-87
2023/10/01 00:20:33;;;;;;;9.73;3.50;;;;;;;21.37;38.80;99054.69;5016728;28;20184;-88
2023/10/01 00:23:01;;;;;;;7.30;3.23;;;;;;;21.35;39.01;99048.69;5033693;28;20590;-87
2023/10/01 00:25:27;;;;;;;8.00;3.13;;;;;;;21.37;39.02;99057.38;5033770;28;20170;-87
2023/10/01 00:27:53;;;;;;;6.57;3.93;;;;;;;21.28;39.09;99052.91;5033718;28;20178;-87
2023/10/01 00:30:21;;;;;;;7.23;3.30;;;;;;;21.21;39.40;99046.50;5016171;28;20202;-87
2023/10/01 00:32:50;;;;;;;9.40;4.07;;;;;;;21.16;39.38;99048.78;5034277;28;20170;-86
2023/10/01 00:35:16;;;;;;;7.37;3.60;;;;;;;21.18;39.58;99046.81;5034120;28;20170;-87
2023/10/01 00:37:42;;;;;;;8.73;3.97;;;;;;;21.22;39.72;99047.34;5016412;28;20193;-87
2023/10/01 00:40:10;;;;;;;13.57;3.80;;;;;;;21.13;39.33;99043.75;5033881;28;20163;-87
2023/10/01 00:42:37;;;;;;;6.83;3.53;;;;;;;21.10;39.83;99044.06;5016223;28;20174;-86
2023/10/01 00:45:07;;;;;;;11.40;3.80;;;;;;;21.09;39.73;99052.22;5033821;28;20596;-86
2023/10/01 00:47:33;;;;;;;10.90;3.33;;;;;;;21.15;39.45;99041.78;5016093;28;20198;-86
2023/10/01 00:50:00;;;;;;;10.47;3.47;;;;;;;21.16;39.51;99038.13;5033710;28;20194;-86
2023/10/01 00:52:26;;;;;;;7.77;4.10;;;;;;;21.01;39.92;99039.59;5033686;28;20177;-87
2023/10/01 00:55:15;;;;;;;8.10;3.57;;;;;;;21.02;39.93;99035.06;5016689;28;20182;-88
2023/10/01 00:57:53;;;;;;;8.13;3.53;;;;;;;21.17;39.72;99033.66;5033681;28;20155;-87
2023/10/01 01:00:19;;;;;;;8.70;3.43;;;;;;;21.21;39.91;99027.00;5033326;28;20147;-87
2023/10/01 01:05:53;;;;;;;10.57;3.67;;;;;;;21.04;40.05;99028.59;5034229;28;20190;-87
2023/10/01 01:08:28;;;;;;;8.50;3.33;;;;;;;21.09;39.87;99025.56;5015769;28;20167;-87
2023/10/01 01:10:54;;;;;;;8.47;3.33;;;;;;;21.15;39.60;99024.94;5015579;28;20285;-87
2023/10/01 01:13:24;;;;;;;10.57;3.70;;;;;;;21.34;39.41;99023.00;5015717;28;20265;-87
2023/10/01 01:15:51;;;;;;;7.70;3.03;;;;;;;21.26;39.28;99020.25;5015121;28;20196;-87
2023/10/01 01:18:20;;;;;;;7.83;3.20;;;;;;;21.19;39.59;99013.84;5016534;28;20232;-87
2023/10/01 01:20:46;;;;;;;9.90;3.17;;;;;;;21.31;39.27;99011.78;5015760;28;20170;-87
2023/10/01 01:23:16;;;;;;;6.93;2.87;;;;;;;21.44;39.11;99015.75;5016697;28;20332;-87
2023/10/01 01:25:43;;;;;;;12.03;3.30;;;;;;;21.42;39.35;99009.75;5016463;28;20265;-87
2023/10/01 01:28:12;;;;;;;6.10;2.57;;;;;;;21.37;39.19;99009.38;5020302;28;20178;-86
2023/10/01 01:30:42;;;;;;;9.67;3.23;;;;;;;21.40;39.04;99013.56;5037353;28;20194;-87
2023/10/01 01:33:13;;;;;;;9.43;2.90;;;;;;;21.51;38.80;99013.34;5037372;28;20170;-87
2023/10/01 01:35:43;;;;;;;6.63;2.47;;;;;;;21.46;38.61;99015.63;5019560;28;20240;-87
2023/10/01 01:38:09;;;;;;;4.70;2.47;;;;;;;21.56;38.80;99010.19;5037003;28;20170;-87
2023/10/01 01:40:40;;;;;;;4.87;2.37;;;;;;;21.39;38.89;99006.53;5036949;28;20173;-86
2023/10/01 01:43:15;;;;;;;12.23;3.10;;;;;;;21.42;39.30;99007.06;5012087;28;20644;-86
2023/10/01 01:45:44;;;;;;;5.33;2.70;;;;;;;21.27;39.39;99003.28;5019755;28;20180;-87
2023/10/01 01:48:24;;;;;;;7.63;2.70;;;;;;;21.50;39.02;99010.81;5019359;28;20236;-86
2023/10/01 01:50:54;;;;;;;7.37;2.60;;;;;;;21.47;38.82;99011.09;5037020;28;20220;-87
2023/10/01 01:53:20;;;;;;;5.73;2.27;;;;;;;21.56;38.95;99023.53;5019318;28;20217;-87
2023/10/01 01:55:47;;;;;;;8.07;2.97;;;;;;;21.56;39.12;99015.53;5036975;28;20265;-86
2023/10/01 01:58:15;;;;;;;6.63;2.37;;;;;;;21.44;39.07;99021.09;5036488;28;20194;-87
2023/10/01 02:01:01;;;;;;;5.40;2.43;;;;;;;21.43;38.74;99016.72;5036872;28;20261;-87
2023/10/01 02:03:34;;;;;;;8.03;2.27;;;;;;;21.57;38.68;99017.19;5019178;28;20609;-87
2023/10/01 02:06:00;;;;;;;5.57;2.13;;;;;;;21.63;38.80;99016.59;5037092;28;20185;-87
2023/10/01 02:08:35;;;;;;;8.37;2.47;;;;;;;21.70;38.57;99025.66;5036429;28;20176;-87
2023/10/01 02:11:09;;;;;;;5.33;2.30;;;;;;;21.70;38.48;99020.31;5018930;28;20201;-88
2023/10/01 02:13:40;;;;;;;6.00;2.73;;;;;;;21.66;38.73;99019.81;5019500;28;20194;-87
2023/10/01 02:18:58;;;;;;;5.20;2.47;;;;;;;21.58;38.71;99014.41;5036262;28;20487;-90
2023/10/01 02:21:42;;;;;;;8.20;2.70;;;;;;;21.61;38.54;99022.09;5018699;28;20641;-87
2023/10/01 02:24:23;;;;;;;4.63;2.43;;;;;;;21.63;38.78;99006.78;5036224;28;20626;-87
2023/10/01 02:26:53;;;;;;;6.10;2.33;;;;;;;21.56;38.64;99010.19;5036102;28;20166;-86
2023/10/01 02:29:24;;;;;;;8.07;2.80;;;;;;;21.63;38.73;99008.59;5036080;28;20189;-87
2023/10/01 02:31:56;;;;;;;5.87;2.47;;;;;;;21.50;38.82;99008.13;5018567;28;20202;-87
2023/10/01 02:34:29;;;;;;;5.00;2.43;;;;;;;21.34;39.41;99012.31;5036047;28;20291;-87
2023/10/01 02:36:55;;;;;;;6.80;2.37;;;;;;;21.30;39.34;99010.94;5035335;28;20620;-88
2023/10/01 02:39:27;;;;;;;5.37;2.20;;;;;;;21.25;39.55;99004.41;5035818;28;20707;-88
2023/10/01 02:44:39;;;;;;;8.30;2.47;;;;;;;21.16;39.79;99000.81;5036411;28;20296;-87
2023/10/01 02:47:18;;;;;;;8.23;3.07;;;;;;;21.12;39.50;99004.75;5018244;28;20235;-87
2023/10/01 02:49:49;;;;;;;7.93;2.67;;;;;;;21.19;39.62;99005.84;5035907;28;20155;-87
2023/10/01 02:52:22;;;;;;;5.93;2.27;;;;;;;21.19;39.69;99000.50;5035899;28;20166;-87
2023/10/01 02:54:54;;;;;;;5.43;2.87;;;;;;;21.15;39.84;99001.78;5035558;28;20234;-88
2023/10/01 02:57:26;;;;;;;7.20;2.50;;;;;;;21.26;39.52;99003.41;5035479;28;20518;-87
2023/10/01 03:02:53;;;;;;;7.37;2.20;;;;;;;21.14;40.09;98991.28;5035489;28;20182;-87
2023/10/01 03:05:28;;;;;;;7.37;2.47;;;;;;;21.19;39.67;98999.66;5017902;28;20205;-87
2023/10/01 03:07:54;;;;;;;12.80;2.90;;;;;;;21.24;39.85;98998.22;5035956;28;20165;-87
2023/10/01 03:10:26;;;;;;;5.63;2.47;;;;;;;21.24;39.87;98997.38;5035524;28;20194;-87
2023/10/01 03:12:59;;;;;;;6.13;2.23;;;;;;;21.23;39.83;99001.88;5018670;28;20192;-87
2023/10/01 03:15:28;;;;;;;3.33;1.87;;;;;;;21.09;40.09;99004.22;5035428;28;20171;-86
2023/10/01 03:18:05;;;;;;;7.97;2.57;;;;;;;21.12;40.22;99004.75;5017888;28;20170;-87
2023/10/01 03:23:11;;;;;;;7.93;2.50;;;;;;;21.27;39.88;99010.41;5035926;28;20158;-86
2023/10/01 03:25:41;;;;;;;7.53;3.00;;;;;;;21.17;40.12;99007.81;5035875;28;20159;-86
2023/10/01 03:28:26;;;;;;;6.30;2.20;;;;;;;21.27;39.95;99007.75;5017783;28;20182;-87
2023/10/01 03:31:09;;;;;;;5.10;2.43;;;;;;;21.21;40.38;99009.19;5035443;28;20190;-86
2023/10/01 03:33:39;;;;;;;8.57;2.50;;;;;;;21.21;40.21;99009.19;5035310;28;20165;-87
2023/10/01 03:36:12;;;;;;;4.23;2.13;;;;;;;21.29;40.30;99011.09;5034833;28;20586;-86
2023/10/01 03:38:44;;;;;;;5.93;2.07;;;;;;;21.35;39.85;99015.84;5017632;28;20674;-86
2023/10/01 03:41:20;;;;;;;7.13;2.47;;;;;;;21.36;39.87;99021.00;5034754;28;20613;-87
2023/10/01 03:43:47;;;;;;;6.30;2.37;;;;;;;21.43;40.13;99015.91;5034621;28;20162;-87
2023/10/01 03:46:14;;;;;;;7.67;3.03;;;;;;;21.36;39.87;99023.69;5034593;28;20174;-87
2023/10/01 03:48:58;;;;;;;7.97;3.07;;;;;;;21.39;40.03;99017.19;5033817;28;20213;-87
2023/10/01 03:51:58;;;;;;;4.47;2.50;;;;;;;21.43;39.86;99019.41;5017537;28;20262;-87
2023/10/01 03:54:26;;;;;;;6.93;2.43;;;;;;;21.39;40.08;99019.88;5011929;28;20177;-87
2023/10/01 03:56:58;;;;;;;8.20;3.13;;;;;;;21.41;39.92;99018.72;5017031;28;20217;-87
2023/10/01 03:59:28;;;;;;;7.27;2.00;;;;;;;21.30;40.02;99024.28;5018174;28;20178;-87
2023/10/01 04:02:00;;;;;;;5.37;2.30;;;;;;;21.31;40.21;99011.78;5034234;28;20195;-86
2023/10/01 04:04:31;;;;;;;4.47;2.07;;;;;;;21.31;40.00;99014.44;5017075;28;20277;-87
2023/10/01 04:07:09;;;;;;;4.30;1.93;;;;;;;21.13;40.54;99011.78;5034162;28;20151;-88
2023/10/01 04:09:45;;;;;;;4.83;2.47;;;;;;;21.07;40.54;99006.22;5034231;28;20154;-86
2023/10/01 04:12:33;;;;;;;5.17;2.37;;;;;;;21.23;40.84;99009.88;5016699;28;20178;-86
2023/10/01 04:15:02;;;;;;;5.10;2.53;;;;;;;21.35;40.10;99022.03;5016578;28;20257;-86
2023/10/01 04:17:28;;;;;;;6.57;2.10;;;;;;;21.37;40.35;99012.03;5016518;28;20537;-86
2023/10/01 04:20:00;;;;;;;4.10;2.07;;;;;;;21.22;40.46;99013.56;5016780;28;20166;-87
2023/10/01 04:22:29;;;;;;;11.23;3.13;;;;;;;21.13;40.81;99022.44;5034478;28;20158;-87
2023/10/01 04:25:01;;;;;;;6.63;2.57;;;;;;;21.28;40.56;99018.25;5033852;28;20179;-86
2023/10/01 04:27:30;;;;;;;9.73;2.47;;;;;;;21.31;40.26;99019.78;5016508;28;20529;-87
2023/10/01 04:30:00;;;;;;;5.93;2.67;;;;;;;21.36;40.29;99023.69;5033721;28;20201;-87
2023/10/01 04:32:28;;;;;;;8.13;2.50;;;;;;;21.48;40.23;99028.78;5033992;28;20242;-87
2023/10/01 04:34:56;;;;;;;4.70;2.07;;;;;;;21.45;40.17;99029.94;5016343;28;20181;-86
2023/10/01 04:37:36;;;;;;;10.57;2.20;;;;;;;21.42;39.96;99033.75;5016239;28;20549;-88
2023/10/01 04:40:31;;;;;;;7.47;2.80;;;;;;;21.51;40.07;99040.00;5033958;28;20229;-87
2023/10/01 04:43:10;;;;;;;5.33;2.10;;;;;;;21.57;40.06;99042.03;5033277;28;20174;-88
2023/10/01 04:45:40;;;;;;;4.03;2.50;;;;;;;21.56;39.91;99047.53;5034032;28;20161;-87
2023/10/01 04:48:17;;;;;;;7.43;2.80;;;;;;;21.62;39.85;99052.28;5033494;28;20170;-87
2023/10/01 04:50:46;;;;;;;5.60;2.27;;;;;;;21.62;40.06;99047.75;5033714;28;20200;-86
2023/10/01 04:53:14;;;;;;;7.93;2.77;;;;;;;21.62;40.30;99049.63;5033658;28;20624;-86
2023/10/01 04:55:43;;;;;;;11.40;2.60;;;;;;;21.48;40.08;99050.13;5016021;28;20189;-87
2023/10/01 04:58:12;;;;;;;7.30;2.17;;;;;;;21.46;40.80;99060.13;5015963;28;20209;-86
2023/10/01 05:00:40;;;;;;;7.17;2.40;;;;;;;21.46;40.39;99060.13;5015760;28;20179;-87
2023/10/01 05:03:06;;;;;;;5.17;2.57;;;;;;;21.50;40.53;99057.00;5033775;28;20253;-87
2023/10/01 05:05:36;;;;;;;4.03;1.93;;;;;;;21.58;40.52;99059.75;5015787;28;20328;-87
2023/10/01 05:08:04;;;;;;;9.07;2.77;;;;;;;21.59;40.58;99060.59;5033827;28;20209;-87
2023/10/01 05:10:29;;;;;;;5.43;2.13;;;;;;;21.64;40.48;99063.63;5033821;28;20198;-87
2023/10/01 05:12:58;;;;;;;5.47;2.43;;;;;;;21.75;40.24;99069.56;5015755;28;20343;-87
2023/10/01 05:15:35;;;;;;;7.00;2.57;;;;;;;21.84;40.35;99075.81;5015822;28;20177;-87
2023/10/01 05:18:04;;;;;;;4.80;2.73;;;;;;;21.97;39.87;99070.97;5015822;28;20185;-86
2023/10/01 05:20:30;;;;;;;6.90;2.03;;;;;;;21.92;40.08;99083.94;5015686;28;20184;-87
2023/10/01 05:22:59;;;;;;;5.13;1.90;;;;;;;22.13;40.05;99089.78;5033093;28;20257;-87
2023/10/01 05:25:26;;;;;;;5.37;2.43;;;;;;;22.30;39.55;99078.22;5033652;28;20252;-88
2023/10/01 05:27:56;;;;;;;4.40;2.30;;;;;;;22.41;39.22;99075.31;5015921;28;20179;-87
2023/10/01 05:30:42;;;;;;;5.57;2.00;;;;;;;22.79;39.41;99078.59;5015555;28;20226;-87
2023/10/01 05:33:12;;;;;;;6.77;2.47;;;;;;;22.89;38.69;99076.63;5015691;28;20162;-87
2023/10/01 05:35:48;;;;;;;8.30;2.37;;;;;;;23.16;38.35;99071.06;5015885;28;20175;-87
2023/10/01 05:38:16;;;;;;;3.50;2.10;;;;;;;23.35;38.09;99070.78;5015793;28;20162;-87
2023/10/01 05:40:44;;;;;;;6.57;2.07;;;;;;;23.39;38.19;99076.69;5015466;28;20273;-87
2023/10/01 05:43:13;;;;;;;8.90;3.70;;;;;;;23.50;38.11;99074.56;5015342;28;20181;-87
2023/10/01 05:45:44;;;;;;;5.20;2.60;;;;;;;23.80;37.58;99070.41;5015551;28;20170;-87
2023/10/01 05:48:18;;;;;;;7.53;3.07;;;;;;;24.00;37.00;99085.16;5033078;28;20155;-87
2023/10/01 05:50:44;;;;;;;29.03;13.93;;;;;;;24.48;36.82;99086.16;5032950;28;20201;-87
2023/10/01 05:53:10;;;;;;;12.43;4.70;;;;;;;24.89;35.62;99080.59;5033367;28;20174;-88
2023/10/01 05:55:40;;;;;;;12.13;5.87;;;;;;;25.32;34.98;99076.53;5015346;28;20197;-88
2023/10/01 05:58:16;;;;;;;8.63;4.47;;;;;;;25.51;34.61;99070.75;5019717;28;20179;-88
2023/10/01 06:00:56;;;;;;;21.53;10.87;;;;;;;25.85;34.36;99082.94;4996529;28;20245;-87
2023/10/01 06:03:23;;;;;;;26.30;10.83;;;;;;;26.36;33.71;99076.03;5015601;28;20170;-88
2023/10/01 06:05:58;;;;;;;9.60;4.03;;;;;;;26.50;32.48;99067.13;5024047;28;20536;-88
2023/10/01 06:08:32;;;;;;;8.03;2.80;;;;;;;27.25;32.02;99068.63;5012339;28;20184;-88
2023/10/01 06:11:03;;;;;;;4.90;2.20;;;;;;;27.81;30.85;99068.91;5048611;28;20201;-87
2023/10/01 06:13:29;;;;;;;4.93;2.77;;;;;;;29.00;29.51;99076.97;5023037;28;20172;-87
2023/10/01 06:16:11;;;;;;;8.50;2.20;;;;;;;29.99;28.36;99083.59;5047235;28;20257;-87
2023/10/01 06:18:41;;;;;;;6.63;2.83;;;;;;;31.17;27.11;99078.13;5030645;28;20261;-87
2023/10/01 06:21:09;;;;;;;7.55;2.20;;;;;;;32.11;26.05;99082.69;5022821;28;20240;-87
2023/10/01 06:23:48;;;;;;;4.00;2.00;;;;;;;32.77;25.09;99091.13;5032226;28;20551;-87
2023/10/01 06:26:15;;;;;;;10.27;2.50;;;;;;;33.07;24.70;99093.97;5030632;28;20213;-87
2023/10/01 06:28:41;;;;;;;5.78;2.80;;;;;;;33.23;24.57;99098.00;5044663;28;20177;-87
2023/10/01 06:31:06;;;;;;;10.05;2.70;;;;;;;33.47;24.65;99102.47;5029717;28;20205;-87
2023/10/01 06:33:35;;;;;;;7.07;2.83;;;;;;;33.78;24.07;99096.06;5050213;28;20231;-87
2023/10/01 06:36:16;;;;;;;4.68;2.38;;;;;;;34.14;23.66;99095.13;5045431;28;20380;-88
2023/10/01 06:38:47;;;;;;;9.10;2.45;;;;;;;34.16;23.81;99095.72;5039927;28;20269;-88
2023/10/01 06:41:25;;;;;;;4.28;2.60;;;;;;;34.10;23.66;99099.34;5025031;28;20171;-88
2023/10/01 06:43:56;;;;;;;4.85;2.08;;;;;;;33.50;23.81;99106.63;5043627;28;20181;-89
2023/10/01 06:46:27;;;;;;;5.28;2.42;;;;;;;32.90;24.68;99109.16;5042244;28;20166;-88
2023/10/01 06:48:58;;;;;;;4.95;2.00;;;;;;;32.88;25.19;99108.56;5035286;28;20255;-88
2023/10/01 06:51:26;;;;;;;5.30;2.33;;;;;;;32.98;24.53;99099.88;5035165;28;20272;-89
2023/10/01 06:54:05;;;;;;;8.10;2.85;;;;;;;32.70;25.13;99108.53;5025856;28;20295;-89
2023/10/01 06:56:43;;;;;;;6.25;2.97;;;;;;;32.44;25.83;99104.16;5010828;28;20177;-89
2023/10/01 07:01:47;;;;;;;5.05;2.25;;;;;;;31.59;26.49;99100.06;5035937;28;20178;-89
2023/10/01 07:04:18;;;;;;;5.05;2.40;;;;;;;31.59;25.96;99110.09;5021844;28;20285;-89
2023/10/01 07:06:44;;;;;;;3.15;1.80;;;;;;;31.54;26.49;99112.59;5032106;28;20181;-89
2023/10/01 07:11:59;;;;;;;5.45;2.38;;;;;;;30.74;27.64;99105.69;5045213;28;20225;-88
2023/10/01 07:14:39;;;;;;;6.70;2.20;;;;;;;30.98;27.53;99107.75;5017888;28;20628;-89
2023/10/01 07:17:13;;;;;;;11.05;3.42;;;;;;;31.03;27.47;99109.81;5039535;28;20178;-91
2023/10/01 07:19:40;;;;;;;5.60;2.33;;;;;;;30.92;27.11;99110.50;5048425;28;20170;-90
2023/10/01 07:22:06;;;;;;;8.00;2.45;;;;;;;30.97;27.12;99113.41;5027686;28;20177;-90
2023/10/01 07:24:38;;;;;;;6.03;2.17;;;;;;;30.78;27.61;99112.34;5023284;28;20697;-89
2023/10/01 07:27:06;;;;;;;4.07;2.10;;;;;;;30.74;27.87;99121.91;5014253;28;20533;-91
2023/10/01 07:29:43;;;;;;;6.03;2.35;;;;;;;30.88;27.48;99117.31;5016208;28;21096;-89
2023/10/01 07:32:14;;;;;;;4.28;2.33;;;;;;;30.61;27.68;99121.94;5034345;28;20197;-90
2023/10/01 07:34:45;;;;;;;3.58;1.92;;;;;;;30.57;27.60;99127.97;5046550;28;20181;-90
2023/10/01 07:37:23;;;;;;;4.97;1.80;;;;;;;30.25;27.65;99132.28;5033755;28;20228;-90
2023/10/01 07:39:55;;;;;;;4.43;2.25;;;;;;;30.43;28.50;99130.69;5024700;28;20157;-89
2023/10/01 07:42:27;;;;;;;5.07;2.42;;;;;;;30.55;27.81;99130.91;5045344;28;20583;-90
2023/10/01 07:44:56;;;;;;;7.10;2.80;;;;;;;30.77;27.75;99129.63;5046261;28;20178;-90
2023/10/01 07:47:29;;;;;;;6.10;2.85;;;;;;;30.97;27.26;99132.34;5035014;28;20620;-90
2023/10/01 07:50:03;;;;;;;5.95;2.25;;;;;;;30.68;27.60;99135.47;5021118;28;20492;-91
2023/10/01 07:52:36;;;;;;;4.95;3.15;;;;;;;30.67;27.32;99141.91;5044293;28;20648;-89
2023/10/01 07:55:29;;;;;;;6.35;2.47;;;;;;;30.72;28.47;99136.69;5049617;28;20206;-90
2023/10/01 07:57:51;;;;;;;4.93;2.25;;;;;;;30.69;27.16;99132.53;5036629;28;20276;-90
2023/10/01 08:00:29;;;;;;;6.38;2.45;;;;;;;30.43;27.85;99135.25;5036781;28;20622;-90
2023/10/01 08:05:41;;;;;;;4.95;2.55;;;;;;;30.23;27.67;99131.66;5054445;28;20303;-91
2023/10/01 08:08:09;;;;;;;6.47;2.22;;;;;;;30.03;27.55;99136.22;5036245;28;20184;-91
2023/10/01 08:10:37;;;;;;;8.82;2.90;;;;;;;30.10;27.55;99128.94;5054226;28;20288;-90
2023/10/01 08:13:07;;;;;;;5.30;2.45;;;;;;;30.19;27.70;99130.44;5030792;28;20266;-91
2023/10/01 08:15:57;;;;;;;3.88;2.08;;;;;;;30.20;27.02;99132.06;5034368;28;20178;-90
2023/10/01 08:18:46;;;;;;;5.22;2.00;;;;;;;30.03;26.85;99145.13;5036665;28;20169;-90
2023/10/01 08:21:16;;;;;;;7.47;2.28;;;;;;;30.01;27.86;99141.81;5033365;28;20205;-90
2023/10/01 08:23:54;;;;;;;5.28;2.15;;;;;;;30.11;27.99;99144.97;5033699;28;20175;-91
2023/10/01 08:29:07;;;;;;;6.07;2.30;;;;;;;30.58;26.89;99138.59;5047192;28;20177;-91
2023/10/01 08:34:59;;;;;;;7.22;2.20;;;;;;;30.35;27.35;99138.13;4999489;28;20210;-90
2023/10/01 08:37:22;;;;;;;5.40;2.42;;;;;;;30.58;26.74;99137.75;5052128;28;20182;-90
2023/10/01 08:39:53;;;;;;;6.10;2.30;;;;;;;30.64;26.77;99134.22;5035712;28;20177;-89
2023/10/01 08:42:19;;;;;;;5.70;2.20;;;;;;;30.90;26.17;99140.44;5035402;28;20167;-91
2023/10/01 08:45:04;;;;;;;4.80;2.22;;;;;;;30.65;26.27;99135.88;5033345;28;20166;-91
2023/10/01 08:47:36;;;;;;;4.60;2.22;;;;;;;30.71;27.10;99132.34;5025437;28;20179;-90
2023/10/01 08:52:58;;;;;;;6.20;2.72;;;;;;;31.04;26.46;99133.16;5025843;28;20193;-91
2023/10/01 08:56:13;;;;;;;4.93;2.25;;;;;;;31.07;26.08;99137.31;5032518;28;20655;-90
2023/10/01 08:58:41;;;;;;;6.85;2.95;;;;;;;31.12;25.46;99129.38;5030394;28;20679;-91
2023/10/01 09:04:29;;;;;;;4.30;1.70;;;;;;;31.46;25.92;99139.94;5002456;28;20237;-91
2023/10/01 09:07:00;;;;;;;3.33;1.90;;;;;;;31.40;24.99;99129.91;5032361;28;20193;-90
2023/10/01 09:09:26;;;;;;;4.43;2.08;;;;;;;31.64;25.47;99126.53;5033594;28;20191;-89
2023/10/01 09:11:58;;;;;;;5.93;3.03;;;;;;;31.77;25.07;99123.75;5015926;28;20202;-90
2023/10/01 09:14:39;;;;;;;9.52;2.30;;;;;;;31.89;25.84;99122.00;5033080;28;20151;-90
2023/10/01 09:17:24;;;;;;;5.40;2.67;;;;;;;31.82;24.83;99121.22;5032935;28;20254;-89
2023/10/01 09:19:51;;;;;;;5.47;2.60;;;;;;;31.62;25.02;99125.91;5026583;28;20183;-89
2023/10/01 09:22:40;;;;;;;3.92;2.25;;;;;;;31.50;25.20;99128.44;5032813;28;20183;-90
2023/10/01 09:25:34;;;;;;;4.40;1.95;;;;;;;31.89;25.20;99127.41;5032348;28;20197;-89
2023/10/01 09:28:19;;;;;;;6.32;2.40;;;;;;;31.91;25.47;99127.22;5013839;28;20186;-89
2023/10/01 09:31:03;;;;;;;6.15;2.30;;;;;;;31.55;25.03;99122.41;5017920;28;20548;-89
2023/10/01 09:33:39;;;;;;;4.93;2.58;;;;;;;31.67;25.09;99117.13;5015141;28;20209;-89
2023/10/01 09:36:08;;;;;;;5.25;2.47;;;;;;;31.88;25.53;99123.06;5030874;28;20193;-90
2023/10/01 09:38:57;;;;;;;4.10;2.00;;;;;;;31.49;25.69;99123.25;5015402;28;20284;-89
2023/10/01 09:41:29;;;;;;;3.97;2.50;;;;;;;31.51;25.54;99107.63;5032637;28;20238;-91
2023/10/01 09:43:58;;;;;;;5.13;2.50;;;;;;;31.64;26.04;99115.69;5032773;28;20601;-90
2023/10/01 09:46:34;;;;;;;4.70;2.63;;;;;;;31.71;25.49;99108.34;5032647;28;20178;-89
2023/10/01 09:49:02;;;;;;;7.85;2.63;;;;;;;31.76;25.30;99105.00;5019047;28;20171;-90
2023/10/01 09:51:41;;;;;;;9.85;2.90;;;;;;;32.01;24.98;99098.63;5036401;28;20277;-89
2023/10/01 09:54:13;;;;;;;5.22;2.45;;;;;;;32.32;25.33;99100.47;5028945;28;20220;-89
2023/10/01 09:59:08;;;;;;;8.13;2.65;;;;;;;32.51;24.94;99104.06;5035568;28;20174;-89
2023/10/01 10:01:37;;;;;;;4.25;2.55;;;;;;;32.64;24.28;99098.56;5036005;28;20192;-88
2023/10/01 10:04:05;;;;;;;4.72;2.33;;;;;;;32.58;24.45;99094.84;5018753;28;20556;-90
2023/10/01 10:06:33;;;;;;;5.80;2.22;;;;;;;32.51;24.68;99104.06;5036171;28;20205;-90
2023/10/01 10:09:04;;;;;;;9.60;2.72;;;;;;;32.45;24.97;99099.53;5036173;28;20174;-89
2023/10/01 10:11:40;;;;;;;7.47;2.60;;;;;;;32.77;23.93;99098.44;5036279;28;20194;-90
2023/10/01 10:14:28;;;;;;;7.43;2.58;;;;;;;32.80;24.46;99103.41;5036443;28;20154;-90
2023/10/01 10:16:56;;;;;;;4.38;2.17;;;;;;;32.65;24.37;99098.31;5018127;28;20237;-90
2023/10/01 10:19:23;;;;;;;7.90;2.72;;;;;;;32.57;23.20;99100.50;5002277;28;20213;-91
2023/10/01 10:24:54;;;;;;;5.65;2.83;;;;;;;32.40;24.94;99091.22;5035352;28;20166;-89
2023/10/01 10:27:49;;;;;;;4.93;2.50;;;;;;;32.70;24.08;99081.38;5041568;28;20255;-89
2023/10/01 10:30:21;;;;;;;12.13;2.70;;;;;;;32.66;24.07;99080.16;5035725;28;20239;-90
2023/10/01 10:33:15;;;;;;;4.30;2.08;;;;;;;32.87;23.48;99082.47;5054411;28;20174;-90
2023/10/01 10:35:51;;;;;;;5.80;2.33;;;;;;;32.78;23.89;99072.97;5055278;28;20182;-90
2023/10/01 10:38:52;;;;;;;4.18;2.10;;;;;;;33.03;24.14;99073.72;5026411;28;20548;-90
2023/10/01 10:41:19;;;;;;;6.95;2.78;;;;;;;33.10;23.48;99076.41;5035485;28;20257;-90
2023/10/01 10:44:08;;;;;;;4.90;2.45;;;;;;;33.16;23.33;99075.47;4999630;28;20183;-89
2023/10/01 10:47:10;;;;;;;5.43;2.40;;;;;;;33.12;23.38;99069.69;5023768;28;20205;-89
2023/10/01 10:50:11;;;;;;;5.13;2.40;;;;;;;33.22;23.13;99069.97;5011019;28;20220;-88
2023/10/01 10:52:36;;;;;;;5.47;2.47;;;;;;;33.49;23.75;99061.50;5035166;28;20186;-89
2023/10/01 10:55:18;;;;;;;5.50;2.50;;;;;;;33.90;22.64;99061.56;5017736;28;20273;-89
2023/10/01 10:57:50;;;;;;;4.50;2.00;;;;;;;34.10;22.94;99062.09;5034547;28;20175;-88
2023/10/01 11:00:27;;;;;;;9.65;2.63;;;;;;;33.98;22.82;99053.06;5033821;28;20233;-88
2023/10/01 11:02:57;;;;;;;5.53;2.22;;;;;;;33.62;21.24;99061.34;5015912;28;20174;-88
2023/10/01 11:05:33;;;;;;;2.78;2.00;;;;;;;33.45;22.14;99073.88;5033962;28;20743;-89
2023/10/01 11:07:59;;;;;;;3.83;1.98;;;;;;;33.38;20.92;99058.50;5033969;28;20168;-89
2023/10/01 11:10:45;;;;;;;8.65;2.30;;;;;;;33.27;21.88;99070.13;5016641;28;20206;-89
2023/10/01 11:13:13;;;;;;;5.20;2.80;;;;;;;32.78;22.74;99067.53;5034549;28;20607;-88
2023/10/01 11:15:39;;;;;;;6.38;2.55;;;;;;;32.32;23.75;99061.66;5035281;28;20170;-89
2023/10/01 11:18:09;;;;;;;5.57;2.28;;;;;;;32.04;23.61;99059.38;5035412;28;20174;-89
2023/10/01 11:20:36;;;;;;;5.28;2.78;;;;;;;32.15;24.03;99056.75;5034929;28;20170;-89
2023/10/01 11:23:08;;;;;;;7.43;2.55;;;;;;;32.54;23.13;99058.38;5034900;28;20240;-88
2023/10/01 11:25:35;;;;;;;3.53;2.15;;;;;;;32.66;22.34;99050.31;5035342;28;20151;-89
2023/10/01 11:28:06;;;;;;;4.15;2.33;;;;;;;32.80;22.87;99057.25;5021393;28;20179;-89
2023/10/01 11:30:42;;;;;;;4.43;2.50;;;;;;;32.87;22.75;99052.59;5030792;28;20205;-90
2023/10/01 11:33:29;;;;;;;4.35;2.10;;;;;;;32.98;22.60;99051.00;5007234;28;20170;-90
2023/10/01 11:36:07;;;;;;;7.15;2.30;;;;;;;32.75;22.79;99046.25;5024227;28;20249;-90
2023/10/01 11:38:45;;;;;;;6.43;2.40;;;;;;;32.83;22.36;99043.25;5006839;28;20166;-89
2023/10/01 11:41:18;;;;;;;6.28;2.33;;;;;;;32.94;22.50;99037.03;5003722;28;20201;-89
2023/10/01 11:44:02;;;;;;;4.07;2.50;;;;;;;32.87;21.71;99038.16;5021920;28;20281;-92
2023/10/01 11:46:39;;;;;;;5.47;2.97;;;;;;;32.54;21.58;99038.53;5020975;28;20257;-90
2023/10/01 11:49:08;;;;;;;4.00;2.08;;;;;;;32.39;21.62;99046.16;5014599;28;20655;-88
2023/10/01 11:51:50;;;;;;;3.78;1.77;;;;;;;32.33;22.00;99037.03;5034651;28;20213;-90
2023/10/01 11:54:25;;;;;;;4.45;2.20;;;;;;;32.44;22.33;99032.75;5054601;28;20169;-89
2023/10/01 11:57:07;;;;;;;5.43;2.00;;;;;;;32.61;21.58;99039.28;5036435;28;20170;-89
2023/10/01 11:59:36;;;;;;;3.70;2.08;;;;;;;32.64;21.85;99041.56;5038988;28;20187;-89
2023/10/01 12:02:23;;;;;;;5.45;2.15;;;;;;;32.45;21.69;99045.25;5029274;28;20667;-89
2023/10/01 12:04:56;;;;;;;6.45;2.60;;;;;;;32.17;22.47;99041.13;5039973;28;20217;-88
2023/10/01 12:07:26;;;;;;;4.85;2.25;;;;;;;32.30;22.40;99033.91;5007307;28;20248;-89
2023/10/01 12:09:54;;;;;;;4.22;2.38;;;;;;;32.27;22.80;99035.19;5019900;28;20248;-88
2023/10/01 12:12:37;;;;;;;6.65;2.47;;;;;;;32.32;21.87;99027.22;5032243;28;20201;-89
2023/10/01 12:17:56;;;;;;;5.00;2.67;;;;;;;32.12;22.40;99024.69;5027121;28;20181;-89
2023/10/01 12:20:30;;;;;;;4.43;2.08;;;;;;;32.15;23.03;99031.56;5040270;28;20178;-89
2023/10/01 12:23:11;;;;;;;5.45;2.38;;;;;;;32.05;22.87;99029.31;5031865;28;20174;-88
2023/10/01 12:28:29;;;;;;;3.88;1.92;;;;;;;32.08;22.34;99017.19;5014870;28;20232;-88
2023/10/01 12:30:57;;;;;;;4.80;2.33;;;;;;;32.14;22.11;99021.75;5026528;28;20228;-88
2023/10/01 12:33:38;;;;;;;7.28;2.67;;;;;;;32.02;22.57;99020.81;5028049;28;20189;-88
2023/10/01 12:36:31;;;;;;;5.22;2.28;;;;;;;31.97;22.90;99015.19;5027086;28;20174;-88
2023/10/01 12:41:56;;;;;;;5.07;2.33;;;;;;;32.01;22.75;99003.69;5038922;28;20689;-88
2023/10/01 12:44:28;;;;;;;10.32;2.30;;;;;;;31.93;23.25;99005.81;5033121;28;20209;-88
2023/10/01 12:47:07;;;;;;;3.53;2.10;;;;;;;32.01;23.30;99005.56;5031411;28;20221;-88